createdAt,value
2019-05-21T00:03:52.758Z,15.57
2019-05-21T00:08:54.847Z,15.23
2019-05-21T00:13:56.944Z,16.80
2019-05-21T00:18:59.035Z,16.20
2019-05-21T00:24:01.204Z,15.97
2019-05-21T00:29:40.064Z,16.50
2019-05-21T00:35:19.311Z,15.57
2019-05-21T00:40:58.360Z,15.87
2019-05-21T00:46:00.453Z,16.70
2019-05-21T00:51:02.537Z,16.40
2019-05-21T00:56:04.625Z,17.03
2019-05-21T01:01:06.712Z,17.43
2019-05-21T01:06:08.755Z,15.53
2019-05-21T01:11:10.828Z,17.60
2019-05-21T01:16:12.927Z,17.90
2019-05-21T01:21:15.009Z,16.13
2019-05-21T01:26:17.113Z,17.60
2019-05-21T01:31:19.289Z,18.13
2019-05-21T01:36:21.443Z,17.43
2019-05-21T01:41:23.542Z,16.70
2019-05-21T01:46:28.001Z,15.50
2019-05-21T01:51:30.063Z,16.13
2019-05-21T01:56:32.186Z,15.20
2019-05-21T02:01:34.256Z,15.37
2019-05-21T02:06:36.371Z,15.50
2019-05-21T02:11:38.516Z,16.77
2019-05-21T02:16:40.590Z,14.87
2019-05-21T02:21:42.676Z,16.27
2019-05-21T02:26:44.758Z,16.10
2019-05-21T02:31:46.829Z,16.90
2019-05-21T02:36:48.982Z,16.10
2019-05-21T02:41:51.039Z,17.43
2019-05-21T02:46:53.121Z,17.37
2019-05-21T02:51:55.239Z,16.97
2019-05-21T02:56:57.430Z,15.70
2019-05-21T03:02:05.769Z,16.53
2019-05-21T03:07:19.669Z,18.30
2019-05-21T03:12:21.784Z,18.63
2019-05-21T03:17:23.884Z,17.73
2019-05-21T03:22:25.959Z,18.67
2019-05-21T03:27:28.079Z,19.23
2019-05-21T03:32:30.934Z,19.60
2019-05-21T03:37:33.040Z,20.03
2019-05-21T03:42:35.131Z,19.07
2019-05-21T03:47:39.314Z,18.17
2019-05-21T03:52:41.421Z,19.00
2019-05-21T03:57:43.472Z,18.33
2019-05-21T04:02:45.585Z,18.97
2019-05-21T04:07:47.697Z,18.80
2019-05-21T04:13:05.922Z,23.10
2019-05-21T04:18:15.341Z,20.23
2019-05-21T04:23:17.434Z,18.97
2019-05-21T04:28:19.497Z,19.73
2019-05-21T04:33:21.570Z,17.37
2019-05-21T04:38:23.867Z,19.37
2019-05-21T04:43:26.106Z,15.27
2019-05-21T04:48:28.338Z,14.03
2019-05-21T04:53:30.381Z,14.10
2019-05-21T04:58:32.517Z,14.40
2019-05-21T05:03:34.704Z,13.40
2019-05-21T05:08:36.761Z,14.93
2019-05-21T05:13:38.833Z,12.73
2019-05-21T05:18:41.038Z,11.80
2019-05-21T05:23:43.138Z,11.13
2019-05-21T05:28:45.326Z,10.10
2019-05-21T05:33:47.437Z,10.00
2019-05-21T05:38:51.917Z,10.68
2019-05-21T05:43:53.978Z,10.80
2019-05-21T05:49:02.162Z,10.60
2019-05-21T05:54:07.534Z,10.43
2019-05-21T05:59:09.782Z,10.80
2019-05-21T06:04:11.938Z,10.82
2019-05-21T06:09:14.058Z,11.12
2019-05-21T06:14:16.112Z,9.70
2019-05-21T06:19:18.521Z,9.43
2019-05-21T06:24:20.710Z,9.28
2019-05-21T06:29:22.767Z,8.38
2019-05-21T06:34:27.003Z,8.00
2019-05-21T06:39:29.043Z,7.87
2019-05-21T06:44:31.113Z,7.58
2019-05-21T06:49:34.168Z,7.42
2019-05-21T06:54:36.237Z,7.03
2019-05-21T06:59:38.363Z,7.83
2019-05-21T07:04:40.471Z,7.92
2019-05-21T07:09:42.622Z,7.53
2019-05-21T07:14:44.699Z,7.33
2019-05-21T07:19:46.897Z,7.12
2019-05-21T07:24:49.006Z,7.55
2019-05-21T07:29:51.088Z,7.03
2019-05-21T07:34:53.215Z,7.30
2019-05-21T07:39:55.314Z,7.70
2019-05-21T07:44:57.529Z,7.85
2019-05-21T07:49:59.705Z,8.30
2019-05-21T07:55:01.819Z,7.72
2019-05-21T08:00:05.481Z,7.58
2019-05-21T08:05:07.776Z,7.33
2019-05-21T08:10:10.270Z,7.10
2019-05-21T08:15:12.773Z,7.10
2019-05-21T08:20:16.890Z,7.20
2019-05-21T08:25:21.045Z,6.65
2019-05-21T08:30:23.103Z,7.33
2019-05-21T08:35:27.416Z,8.03
2019-05-21T08:40:29.746Z,8.70
2019-05-21T08:45:31.932Z,7.15
2019-05-21T08:50:34.231Z,8.63
2019-05-21T08:55:36.384Z,7.83
2019-05-21T09:00:38.619Z,6.00
2019-05-21T09:05:40.712Z,5.20
2019-05-21T09:10:42.768Z,5.20
2019-05-21T09:15:45.163Z,5.90
2019-05-21T09:20:47.296Z,4.30
2019-05-21T09:25:49.789Z,4.30
2019-05-21T09:30:52.308Z,4.25
2019-05-21T09:35:54.451Z,3.92
2019-05-21T09:40:56.605Z,4.25
2019-05-21T09:45:58.671Z,3.70
2019-05-21T09:51:00.970Z,4.35
2019-05-21T09:56:23.202Z,4.00
2019-05-21T10:01:31.855Z,3.62
2019-05-21T10:06:33.938Z,3.30
2019-05-21T10:11:36.037Z,4.03
2019-05-21T10:16:38.121Z,3.55
2019-05-21T10:21:40.236Z,3.22
2019-05-21T10:26:42.490Z,3.52
2019-05-21T10:31:44.694Z,3.60
2019-05-21T10:36:46.821Z,3.85
2019-05-21T10:41:49.009Z,3.40
2019-05-21T10:46:51.300Z,2.77
2019-05-21T10:51:53.446Z,3.10
2019-05-21T10:56:55.596Z,2.85
2019-05-21T11:02:17.505Z,2.70
2019-05-21T11:07:21.983Z,2.60
2019-05-21T11:12:24.557Z,2.75
2019-05-21T11:17:26.730Z,3.05
2019-05-21T11:22:29.052Z,2.33
2019-05-21T11:27:31.444Z,2.80
2019-05-21T11:32:33.733Z,2.15
2019-05-21T11:37:35.988Z,2.80
2019-05-21T11:42:38.127Z,2.30
2019-05-21T11:47:40.795Z,2.02
2019-05-21T11:52:42.896Z,1.87
2019-05-21T11:57:45.145Z,1.70
2019-05-21T12:02:47.210Z,1.72
2019-05-21T12:07:49.310Z,1.25
2019-05-21T12:12:51.478Z,1.45
2019-05-21T12:17:53.671Z,1.30
2019-05-21T12:22:55.858Z,1.30
2019-05-21T12:27:58.513Z,1.20
2019-05-21T12:33:00.581Z,1.20
2019-05-21T12:38:03.120Z,1.20
2019-05-21T12:43:06.809Z,0.90
2019-05-21T12:48:11.021Z,1.10
2019-05-21T12:53:16.423Z,0.90
2019-05-21T12:58:20.170Z,1.27
2019-05-21T13:03:22.323Z,1.80
2019-05-21T13:08:24.795Z,2.30
2019-05-21T13:13:26.898Z,4.10
2019-05-21T13:18:28.952Z,3.08
2019-05-21T13:23:33.366Z,2.87
2019-05-21T13:28:35.549Z,2.70
2019-05-21T13:33:37.669Z,3.00
2019-05-21T13:38:39.741Z,2.80
2019-05-21T13:43:44.132Z,2.72
2019-05-21T13:48:47.020Z,3.20
2019-05-21T13:53:49.451Z,3.33
2019-05-21T13:58:51.573Z,2.60
2019-05-21T14:03:53.789Z,2.37
2019-05-21T14:08:55.919Z,3.60
2019-05-21T14:13:58.015Z,6.17
2019-05-21T14:19:00.179Z,3.17
2019-05-21T14:24:05.277Z,3.12
2019-05-21T14:29:07.422Z,3.12
2019-05-21T14:34:09.562Z,2.80
2019-05-21T14:39:14.608Z,3.10
2019-05-21T14:44:16.802Z,3.17
2019-05-21T14:49:22.736Z,5.30
2019-05-21T14:54:26.987Z,4.12
2019-05-21T14:59:29.044Z,4.90
2019-05-21T15:04:31.377Z,4.70
2019-05-21T15:09:34.073Z,5.03
2019-05-21T15:14:38.732Z,4.50
2019-05-21T15:19:44.484Z,4.75
2019-05-21T15:24:46.589Z,4.10
2019-05-21T15:29:48.732Z,4.42
2019-05-21T15:34:50.912Z,5.90
2019-05-21T15:39:55.292Z,5.45
2019-05-21T15:44:57.447Z,4.90
2019-05-21T15:49:59.642Z,5.25
2019-05-21T15:55:06.270Z,4.50
2019-05-21T16:00:05.803Z,4.37
2019-05-21T16:05:08.433Z,3.37
2019-05-21T16:10:34.921Z,3.52
2019-05-21T16:15:38.164Z,3.20
2019-05-21T16:20:42.457Z,2.60
2019-05-21T16:25:44.451Z,4.42
2019-05-21T16:30:46.674Z,6.58
2019-05-21T16:35:48.731Z,7.60
2019-05-21T16:40:50.901Z,8.30
2019-05-21T16:45:53.181Z,7.80
2019-05-21T16:50:55.230Z,8.78
2019-05-21T16:55:57.291Z,8.65
2019-05-21T17:01:00.035Z,7.53
2019-05-21T17:06:02.124Z,7.53
2019-05-21T17:11:04.231Z,9.30
2019-05-21T17:16:06.441Z,10.00
2019-05-21T17:21:10.209Z,11.18
2019-05-21T17:26:12.400Z,10.57
2019-05-21T17:31:14.503Z,8.28
2019-05-21T17:36:16.652Z,8.88
2019-05-21T17:41:18.787Z,8.00
2019-05-21T17:46:20.856Z,8.23
2019-05-21T17:51:26.053Z,8.37
2019-05-21T17:56:28.257Z,7.83
2019-05-21T18:01:49.613Z,6.37
2019-05-21T18:06:56.010Z,7.40
2019-05-21T18:11:58.072Z,6.93
2019-05-21T18:17:01.754Z,7.47
2019-05-21T18:22:09.485Z,7.30
2019-05-21T18:27:23.667Z,7.63
2019-05-21T18:32:30.044Z,8.60
2019-05-21T18:37:32.744Z,7.27
2019-05-21T18:42:35.322Z,8.80
2019-05-21T18:47:37.430Z,9.77
2019-05-21T18:52:39.569Z,11.63
2019-05-21T18:57:41.681Z,11.53
2019-05-21T19:02:49.814Z,15.83
2019-05-21T19:07:51.955Z,12.03
2019-05-21T19:12:56.610Z,11.70
2019-05-21T19:17:58.733Z,12.53
2019-05-21T19:23:20.230Z,14.63
2019-05-21T19:28:42.863Z,14.20
2019-05-21T19:33:55.583Z,13.60
2019-05-21T19:38:59.648Z,13.03
2019-05-21T19:44:01.959Z,13.13
2019-05-21T19:49:18.878Z,12.97
2019-05-21T19:54:21.012Z,12.17
2019-05-21T19:59:24.208Z,12.67
2019-05-21T20:04:26.922Z,13.30
2019-05-21T20:09:31.137Z,14.50
2019-05-21T20:14:33.195Z,15.17
2019-05-21T20:19:35.861Z,13.30
2019-05-21T20:24:39.096Z,15.57
2019-05-21T20:29:41.964Z,14.47
2019-05-21T20:34:44.113Z,14.97
2019-05-21T20:39:47.969Z,11.83
2019-05-21T20:44:55.613Z,11.40
2019-05-21T20:49:57.868Z,11.77
2019-05-21T20:55:03.178Z,11.73
2019-05-21T21:00:07.610Z,10.47
2019-05-21T21:05:11.952Z,8.53
2019-05-21T21:10:14.013Z,9.07
2019-05-21T21:15:16.692Z,9.47
2019-05-21T21:20:18.831Z,8.67
2019-05-21T21:25:22.175Z,10.27
2019-05-21T21:30:24.604Z,9.13
2019-05-21T21:35:30.353Z,9.13
2019-05-21T21:40:32.529Z,9.27
2019-05-21T21:45:34.727Z,10.43
2019-05-21T21:50:37.852Z,11.33
2019-05-21T21:55:40.192Z,12.37
2019-05-21T22:01:28.682Z,14.43
2019-05-21T22:06:33.566Z,15.47
2019-05-21T22:11:36.673Z,16.47
2019-05-21T22:16:38.792Z,17.80
2019-05-21T22:21:41.152Z,20.60
2019-05-21T22:26:43.195Z,21.23
2019-05-21T22:31:46.916Z,22.37
2019-05-21T22:36:49.107Z,23.87
2019-05-21T22:41:51.520Z,23.00
2019-05-21T22:46:54.102Z,20.33
2019-05-21T22:51:56.348Z,16.30
2019-05-21T22:56:58.431Z,16.97
2019-05-21T23:02:02.440Z,16.27
2019-05-21T23:07:05.202Z,15.13
2019-05-21T23:12:07.996Z,13.60
2019-05-21T23:17:10.582Z,13.13
2019-05-21T23:22:15.782Z,12.87
2019-05-21T23:27:18.866Z,13.03
2019-05-21T23:32:21.613Z,13.67
2019-05-21T23:37:24.800Z,13.77
2019-05-21T23:42:29.768Z,13.10
2019-05-21T23:47:31.047Z,13.97
2019-05-21T23:52:37.135Z,15.10
2019-05-21T23:57:39.737Z,14.93
